Airfield :
LOGIN :

Register | Disclaimer

   EN    FR    IT 

 










Legend :    VFR   Marginal VFR   IFR   Intensive IFR   Very Intensive IFR
Visi :
Ceiling :
>= 8 km
>= 3000ft
5 to 8 km
1000 to 3000 ft
1500m to 5 km
500 to 1000 ft
800 to 1500m
200 to 500 ft
< 800m
< 200 ft
Symbols :   Thunderstorms  Fog  Heavy snow  Heavy precipitations  Wind > 20 kt
SIGMETs :     Misc.  Thunderstorms  Icing  Turbulence  Mountain Waves  Volcanic Ashes







- Airport Elevation : 919 ft
- IATA code : IFO


UKLI - Ivano Frankivs'k

CURRENT METAR :
  • 210422Z 19002MPS 150V220 3600 -SHRA BKN020CB BKN040 13/13 Q1004 R10/290565 NOSIG

EXPIRED METARs :
  • 210400Z 20002MPS 9999 -SHRA BKN024CB BKN040 13/13 Q1003 R10/290565 NOSIG
  • 210330Z 24002MPS 210V270 9999 -SHRA BKN022CB BKN033 13/13 Q1003 R10/290565 NOSIG
  • 210300Z 26003MPS 9999 -SHRA BKN020CB BKN033 13/13 Q1003 R10/290565 NOSIG
  • 210230Z 25003MPS 2600 -SHRA BKN017CB BKN030 13/13 Q1004 NOSIG
  • 210216Z 25002MPS 210V280 2200 -SHRA BKN017CB BKN030 13/13 Q1004 NOSIG
  • 210202Z 25002MPS 4400 -SHRA BKN017CB BKN030 13/13 Q1004 NOSIG

TAF TAF UKLI
Valid from the 21 at 03:00 until the 21 at 12:00 UTC


210204Z 2103/2112 24004MPS 2100 -SHRA BKN007 BKN012CB
TEMPO 2106/2112 VRB07G12MPS 1200 TSRAGR BKN005 BKN010CB
No reported NOTAMs for that airfield.
1 SIGMET reported for the L'VIV FIR (UKLV) :
 
Embedded thunderstorms and hail
UKLV SIGMET 1 VALID 210000/210400 UKLW
UKLV LVIV FIR/UIR EMBD TSGR FCST ENTIRE FIR/UIR TOP FL360 MOV NW 40KMH NC=



MET'MAP, your aeronautical weather chart ! - Copyright ORBIFLY December 2007 - Disclaimer

ORBIFLY MET'MAP TEAM :

Programming & Development : Alexandra Zaïnal
Concept & Development : Baudouin d'Aumeries
Co-Development & Prog : Marc-Olivier Méhu
Technical & hardware support : Manuel Goepfert

Contact : metmap@orbifly.com




SOURCES & CREDITS :

   NOAA